Time;durP1;ratioP1;P1;durP2;ratioP2;P2;SDS_P1;SDS_P2;PMS_P1;PMS_P2;Temp;Humidity;BMP_temperature;BMP_pressure;BME280_temperature;BME280_humidity;BME280_pressure;Samples;Min_cycle;Max_cycle;Signal;HPM_P1;HPM_P2
2020/12/21 00:00:04;;;;;;;17.70;13.97;;;4.40;99.90;;;;;;4954319;29;20224;-40
2020/12/21 00:02:33;;;;;;;17.07;13.83;;;4.40;99.90;;;;;;4954586;29;20289;-42
2020/12/21 00:05:00;;;;;;;23.03;15.40;;;4.40;99.90;;;;;;4954526;29;20294;-40
2020/12/21 00:07:28;;;;;;;18.33;15.10;;;4.40;99.90;;;;;;4954331;29;20235;-40
2020/12/21 00:09:55;;;;;;;19.87;14.93;;;4.40;99.90;;;;;;4954202;29;20211;-40
2020/12/21 00:12:22;;;;;;;15.17;13.13;;;4.40;99.90;;;;;;4954049;29;20333;-41
2020/12/21 00:14:49;;;;;;;16.37;14.57;;;4.40;99.90;;;;;;4954214;29;20214;-40
2020/12/21 00:17:16;;;;;;;16.90;14.10;;;4.40;99.90;;;;;;4954322;29;20302;-40
2020/12/21 00:19:44;;;;;;;23.97;16.03;;;4.30;99.90;;;;;;4954069;29;20639;-40
2020/12/21 00:22:11;;;;;;;14.90;13.40;;;4.30;99.90;;;;;;4954175;29;20294;-41
2020/12/21 00:24:38;;;;;;;16.37;14.73;;;4.40;99.90;;;;;;4953474;28;20298;-41
2020/12/21 00:27:05;;;;;;;18.17;13.73;;;4.40;99.90;;;;;;4953877;29;20318;-41
2020/12/21 00:29:32;;;;;;;14.63;13.13;;;4.40;99.90;;;;;;4954200;29;20746;-41
2020/12/21 00:31:59;;;;;;;15.33;13.73;;;4.50;99.90;;;;;;4954167;29;20211;-48
2020/12/21 00:34:25;;;;;;;13.50;12.10;;;4.50;99.90;;;;;;4954013;28;20215;-41
2020/12/21 00:36:54;;;;;;;26.80;20.57;;;4.50;99.90;;;;;;4953819;29;20255;-41
2020/12/21 00:39:22;;;;;;;15.10;13.50;;;4.50;99.90;;;;;;4953940;29;20251;-42
2020/12/21 00:41:50;;;;;;;17.47;13.93;;;4.50;99.90;;;;;;4954149;29;20302;-39
2020/12/21 00:44:17;;;;;;;24.17;16.17;;;4.60;99.90;;;;;;4954126;29;20218;-41
2020/12/21 00:46:44;;;;;;;18.17;15.50;;;4.60;99.90;;;;;;4953911;29;20318;-42
2020/12/21 00:49:11;;;;;;;21.20;14.93;;;4.70;99.90;;;;;;4953849;29;20216;-40
2020/12/21 00:51:38;;;;;;;15.00;13.23;;;4.60;99.90;;;;;;4953905;29;20215;-42
2020/12/21 00:54:06;;;;;;;18.63;14.63;;;4.60;99.90;;;;;;4953717;29;20250;-41
2020/12/21 00:56:34;;;;;;;15.73;13.93;;;4.50;99.90;;;;;;4954018;29;20581;-43
2020/12/21 00:59:01;;;;;;;14.93;12.93;;;4.50;99.90;;;;;;4953926;29;20218;-41
2020/12/21 01:01:29;;;;;;;14.27;12.83;;;4.60;99.90;;;;;;4953814;29;20215;-41
2020/12/21 01:03:59;;;;;;;14.27;12.73;;;4.60;99.90;;;;;;4953604;29;20211;-44
2020/12/21 01:06:27;;;;;;;14.27;12.87;;;4.60;99.90;;;;;;4953600;29;20254;-41
2020/12/21 01:08:55;;;;;;;14.82;13.43;;;4.70;99.90;;;;;;4953939;29;20380;-42
2020/12/21 01:11:23;;;;;;;16.27;14.47;;;4.70;99.90;;;;;;4953967;29;20266;-41
2020/12/21 01:13:50;;;;;;;15.37;13.90;;;4.70;99.90;;;;;;4953582;29;20249;-41
2020/12/21 01:16:20;;;;;;;14.87;13.43;;;4.70;99.90;;;;;;4953994;29;20266;-44
2020/12/21 01:18:48;;;;;;;15.37;13.77;;;4.80;99.90;;;;;;4953962;29;20220;-39
2020/12/21 01:21:25;;;;;;;22.10;14.10;;;4.80;99.90;;;;;;4953479;29;20251;-39
2020/12/21 01:23:53;;;;;;;19.63;15.27;;;4.80;99.90;;;;;;4953576;29;20350;-39
2020/12/21 01:26:21;;;;;;;17.50;15.03;;;4.80;99.90;;;;;;4953600;29;20246;-39
2020/12/21 01:28:49;;;;;;;16.33;14.70;;;4.70;99.90;;;;;;4953672;29;20207;-39
2020/12/21 01:31:17;;;;;;;16.47;14.77;;;4.70;99.90;;;;;;4953580;29;20270;-39
2020/12/21 01:33:45;;;;;;;16.38;14.23;;;4.70;99.90;;;;;;4953511;29;20306;-40
2020/12/21 01:36:12;;;;;;;16.13;14.23;;;4.60;99.90;;;;;;4946678;28;20294;-39
2020/12/21 01:38:39;;;;;;;14.77;13.27;;;4.70;99.90;;;;;;4957074;29;20207;-39
2020/12/21 01:41:06;;;;;;;27.20;18.23;;;4.60;99.90;;;;;;4957029;29;20235;-41
2020/12/21 01:43:33;;;;;;;15.00;13.40;;;4.60;99.90;;;;;;4956952;29;20554;-40
2020/12/21 01:46:09;;;;;;;15.15;13.32;;;4.70;99.90;;;;;;4956805;29;20253;-39
2020/12/21 01:48:37;;;;;;;15.70;13.90;;;4.70;99.90;;;;;;4956980;29;20318;-40
2020/12/21 01:51:06;;;;;;;15.63;14.03;;;4.60;99.90;;;;;;4956859;29;20218;-41
2020/12/21 01:53:36;;;;;;;14.77;13.37;;;4.60;99.90;;;;;;4956674;29;20667;-41
2020/12/21 01:56:05;;;;;;;15.93;14.33;;;4.60;99.90;;;;;;4956626;29;20653;-40
2020/12/21 01:58:32;;;;;;;14.50;13.10;;;4.60;99.90;;;;;;4956728;28;20243;-40
2020/12/21 02:01:03;;;;;;;22.57;18.23;;;4.60;99.90;;;;;;4956784;29;20238;-41
2020/12/21 02:03:31;;;;;;;20.43;16.17;;;4.60;99.90;;;;;;4957071;29;20211;-40
2020/12/21 02:05:58;;;;;;;14.27;12.73;;;4.60;99.90;;;;;;4956740;29;20270;-40
2020/12/21 02:08:25;;;;;;;16.80;13.57;;;4.60;99.90;;;;;;4956599;29;20262;-40
2020/12/21 02:10:52;;;;;;;18.57;16.23;;;4.70;99.90;;;;;;4956597;29;20430;-41
2020/12/21 02:13:19;;;;;;;16.53;14.73;;;4.70;99.90;;;;;;4956255;29;20334;-41
2020/12/21 02:15:47;;;;;;;17.90;15.00;;;4.80;99.90;;;;;;4956167;29;20324;-41
2020/12/21 02:18:14;;;;;;;20.83;14.82;;;4.80;99.90;;;;;;4956192;29;20267;-42
2020/12/21 02:20:43;;;;;;;18.93;14.90;;;4.80;99.90;;;;;;4956189;29;20214;-43
2020/12/21 02:23:10;;;;;;;23.87;17.30;;;4.80;99.90;;;;;;4956038;29;20623;-42
2020/12/21 02:25:37;;;;;;;15.30;13.70;;;4.80;99.90;;;;;;4956040;28;20254;-41
2020/12/21 02:28:04;;;;;;;17.33;14.53;;;4.80;99.90;;;;;;4956275;29;20231;-42
2020/12/21 02:30:32;;;;;;;17.27;14.50;;;4.80;99.90;;;;;;4956445;29;20293;-41
2020/12/21 02:32:59;;;;;;;15.17;13.77;;;4.80;99.90;;;;;;4956230;29;20530;-41
2020/12/21 02:35:25;;;;;;;13.73;12.33;;;4.80;99.90;;;;;;4956267;28;20219;-41
2020/12/21 02:37:53;;;;;;;15.60;13.93;;;4.70;99.90;;;;;;4956173;29;20645;-40
2020/12/21 02:40:20;;;;;;;15.23;13.63;;;4.70;99.90;;;;;;4955976;29;20208;-41
2020/12/21 02:42:47;;;;;;;19.45;14.90;;;4.70;99.90;;;;;;4955906;29;20298;-41
2020/12/21 02:45:14;;;;;;;18.37;14.77;;;4.70;99.90;;;;;;4955852;29;20674;-43
2020/12/21 02:47:42;;;;;;;17.00;14.80;;;4.70;99.90;;;;;;4955170;28;20637;-45
2020/12/21 02:50:09;;;;;;;16.67;15.00;;;4.70;99.90;;;;;;4955908;29;20393;-44
2020/12/21 02:52:36;;;;;;;16.08;14.40;;;4.80;99.90;;;;;;4955631;29;20246;-44
2020/12/21 02:55:05;;;;;;;16.23;14.43;;;4.80;99.90;;;;;;4955586;29;20256;-42
2020/12/21 02:57:32;;;;;;;14.57;13.15;;;4.90;99.90;;;;;;4955599;29;20765;-42
2020/12/21 02:59:59;;;;;;;15.57;14.10;;;4.90;99.90;;;;;;4955425;29;20215;-42
2020/12/21 03:02:26;;;;;;;16.27;13.80;;;5.00;99.90;;;;;;4955427;29;20737;-42
2020/12/21 03:05:06;;;;;;;14.47;12.97;;;5.00;99.90;;;;;;4955433;29;20243;-43
2020/12/21 03:07:33;;;;;;;14.87;13.37;;;5.00;99.90;;;;;;4955602;29;20322;-42
2020/12/21 03:10:00;;;;;;;15.37;13.90;;;5.00;99.90;;;;;;4955604;28;20212;-41
2020/12/21 03:12:30;;;;;;;15.90;14.20;;;5.00;99.90;;;;;;4955324;29;20298;-41
2020/12/21 03:14:57;;;;;;;14.30;13.00;;;5.00;99.90;;;;;;4955264;29;20226;-42
2020/12/21 03:17:24;;;;;;;16.53;14.07;;;5.00;99.90;;;;;;4955226;29;20302;-42
2020/12/21 03:19:51;;;;;;;15.03;13.53;;;5.00;99.90;;;;;;4955296;29;20266;-41
2020/12/21 03:22:18;;;;;;;15.50;13.90;;;5.00;99.90;;;;;;4955165;29;20641;-39
2020/12/21 03:24:46;;;;;;;15.67;13.87;;;5.00;99.90;;;;;;4955243;29;20219;-40
2020/12/21 03:27:13;;;;;;;15.80;14.03;;;4.90;99.90;;;;;;4954885;29;20710;-40
2020/12/21 03:29:42;;;;;;;18.47;14.00;;;4.90;99.90;;;;;;4955224;29;20212;-39
2020/12/21 03:32:10;;;;;;;15.57;13.87;;;4.90;99.90;;;;;;4954891;29;20215;-39
2020/12/21 03:34:37;;;;;;;14.83;13.40;;;5.00;99.90;;;;;;4954869;29;20246;-39
2020/12/21 03:37:04;;;;;;;16.15;14.45;;;5.10;99.90;;;;;;4954748;28;20241;-40
2020/12/21 03:39:32;;;;;;;14.60;13.10;;;5.10;99.90;;;;;;4954838;29;20667;-40
2020/12/21 03:41:59;;;;;;;15.48;13.98;;;5.10;99.90;;;;;;4955009;29;20246;-39
2020/12/21 03:44:26;;;;;;;15.33;13.83;;;5.10;99.90;;;;;;4954789;29;20298;-40
2020/12/21 03:46:54;;;;;;;15.73;14.03;;;5.10;99.90;;;;;;4954601;29;20573;-40
2020/12/21 03:49:21;;;;;;;15.63;14.10;;;5.10;99.90;;;;;;4954681;29;20717;-41
2020/12/21 03:51:48;;;;;;;15.23;13.73;;;5.10;99.90;;;;;;4954618;29;20306;-41
2020/12/21 03:54:15;;;;;;;15.07;13.53;;;5.10;99.90;;;;;;4954763;29;20263;-40
2020/12/21 03:56:44;;;;;;;14.77;13.13;;;5.00;99.90;;;;;;4954500;29;20298;-40
2020/12/21 03:59:11;;;;;;;15.43;13.83;;;5.00;99.90;;;;;;4954491;28;20215;-40
2020/12/21 04:01:38;;;;;;;14.30;12.90;;;4.90;99.90;;;;;;4954470;29;20239;-40
2020/12/21 04:04:07;;;;;;;16.80;15.17;;;4.90;99.90;;;;;;4954403;29;20306;-40
2020/12/21 04:06:35;;;;;;;14.57;13.03;;;4.80;99.90;;;;;;4954503;29;20216;-40
2020/12/21 04:09:02;;;;;;;15.83;14.13;;;4.80;99.90;;;;;;4954356;29;20328;-40
2020/12/21 04:11:30;;;;;;;15.03;13.43;;;4.80;99.90;;;;;;4954380;29;20255;-40
2020/12/21 04:13:57;;;;;;;16.43;14.73;;;4.80;99.90;;;;;;4954215;28;20326;-40
2020/12/21 04:16:24;;;;;;;15.67;14.03;;;4.70;99.90;;;;;;4954536;29;20304;-40
2020/12/21 04:18:51;;;;;;;14.53;13.00;;;4.60;99.90;;;;;;4954239;29;20733;-41
2020/12/21 04:21:18;;;;;;;15.80;12.83;;;4.60;99.90;;;;;;4954165;29;20311;-41
2020/12/21 04:23:46;;;;;;;14.40;13.03;;;4.50;99.90;;;;;;4954131;29;20215;-41
2020/12/21 04:26:13;;;;;;;14.73;13.33;;;4.50;99.90;;;;;;4954152;29;20234;-42
2020/12/21 04:28:42;;;;;;;15.63;14.00;;;4.40;99.90;;;;;;4953948;29;20706;-43
2020/12/21 04:31:09;;;;;;;15.93;14.43;;;4.30;99.90;;;;;;4954237;29;20339;-42
2020/12/21 04:33:36;;;;;;;14.57;13.13;;;4.30;99.90;;;;;;4954063;29;20462;-41
2020/12/21 04:36:14;;;;;;;16.23;14.53;;;4.20;99.90;;;;;;4953935;29;20298;-44
2020/12/21 04:38:43;;;;;;;16.33;14.73;;;4.10;99.90;;;;;;4954302;29;20599;-41
2020/12/21 04:41:11;;;;;;;15.53;13.93;;;4.10;99.90;;;;;;4953882;29;20247;-42
2020/12/21 04:43:39;;;;;;;16.87;15.07;;;4.00;99.90;;;;;;4954094;29;20207;-41
2020/12/21 04:46:08;;;;;;;14.80;13.20;;;3.90;99.90;;;;;;4953939;29;20745;-41
2020/12/21 04:48:39;;;;;;;14.33;12.93;;;3.90;99.90;;;;;;4953727;29;20314;-41
2020/12/21 04:51:07;;;;;;;16.63;14.13;;;3.90;99.90;;;;;;4953954;29;20298;-41
2020/12/21 04:53:34;;;;;;;15.53;13.90;;;4.00;99.90;;;;;;4953914;29;20310;-41
2020/12/21 04:56:02;;;;;;;15.47;12.43;;;4.10;99.90;;;;;;4954245;29;20266;-40
2020/12/21 04:58:29;;;;;;;15.43;13.83;;;4.20;99.90;;;;;;4954017;29;20237;-41
2020/12/21 05:00:56;;;;;;;15.47;13.90;;;4.30;99.90;;;;;;4953880;29;20314;-40
2020/12/21 05:03:23;;;;;;;14.50;12.93;;;4.30;99.90;;;;;;4953857;29;20246;-40
2020/12/21 05:05:50;;;;;;;15.00;13.50;;;4.40;99.90;;;;;;4953639;29;20302;-41
2020/12/21 05:08:19;;;;;;;16.43;14.00;;;4.40;99.90;;;;;;4953467;29;20227;-40
2020/12/21 05:10:57;;;;;;;19.47;16.47;;;4.40;99.90;;;;;;4953899;28;20238;-40
2020/12/21 05:13:25;;;;;;;17.03;13.77;;;4.40;99.90;;;;;;4957458;29;20247;-40
2020/12/21 05:15:53;;;;;;;14.53;13.03;;;4.50;99.90;;;;;;4957465;29;20294;-40
2020/12/21 05:18:24;;;;;;;14.63;13.13;;;4.50;99.90;;;;;;4957410;29;20618;-40
2020/12/21 05:20:56;;;;;;;14.57;13.17;;;4.50;99.90;;;;;;4957274;29;20310;-40
2020/12/21 05:23:24;;;;;;;16.40;14.73;;;4.60;99.90;;;;;;4957400;29;20250;-40
2020/12/21 05:25:59;;;;;;;15.67;13.97;;;4.60;99.90;;;;;;4957115;29;20588;-40
2020/12/21 05:28:30;;;;;;;15.20;13.70;;;4.60;99.90;;;;;;4956999;29;20231;-41
2020/12/21 05:30:58;;;;;;;15.93;14.33;;;4.70;99.90;;;;;;4957219;29;20207;-40
2020/12/21 05:33:26;;;;;;;15.17;13.57;;;4.80;99.90;;;;;;4957383;29;20216;-41
2020/12/21 05:35:57;;;;;;;15.07;13.47;;;4.90;99.90;;;;;;4957346;29;20223;-40
2020/12/21 05:38:26;;;;;;;16.00;14.30;;;4.90;99.90;;;;;;4957408;29;20678;-41
2020/12/21 05:40:54;;;;;;;14.83;13.33;;;4.90;99.90;;;;;;4957172;28;20620;-41
2020/12/21 05:43:23;;;;;;;19.43;15.83;;;4.90;99.90;;;;;;4957053;29;20315;-44
2020/12/21 05:46:05;;;;;;;16.53;14.23;;;4.80;99.90;;;;;;4956849;29;20212;-41
2020/12/21 05:48:34;;;;;;;15.50;13.63;;;4.80;99.90;;;;;;4957012;29;20338;-40
2020/12/21 05:51:03;;;;;;;15.00;13.50;;;4.80;99.90;;;;;;4957089;29;20294;-39
2020/12/21 05:53:36;;;;;;;15.03;13.43;;;4.80;99.90;;;;;;4956903;29;20247;-40
2020/12/21 05:56:04;;;;;;;14.73;13.10;;;4.80;99.90;;;;;;4956705;29;20217;-39
2020/12/21 05:58:33;;;;;;;16.00;13.67;;;4.80;99.90;;;;;;4957012;29;20623;-39
2020/12/21 06:01:02;;;;;;;16.40;14.70;;;4.90;99.90;;;;;;4956815;29;20208;-42
2020/12/21 06:03:40;;;;;;;16.93;15.23;;;4.90;99.90;;;;;;4955954;29;20237;-40
2020/12/21 06:06:08;;;;;;;16.70;14.63;;;4.80;99.90;;;;;;4956588;29;20246;-40
2020/12/21 06:08:36;;;;;;;15.47;13.87;;;4.90;99.90;;;;;;4956343;29;20231;-40
2020/12/21 06:11:15;;;;;;;15.23;13.80;;;4.90;99.90;;;;;;4956490;29;20284;-40
2020/12/21 06:13:48;;;;;;;15.67;13.87;;;4.80;99.90;;;;;;4956349;29;20711;-42
2020/12/21 06:16:17;;;;;;;14.67;13.27;;;4.80;99.90;;;;;;4956466;29;20638;-41
2020/12/21 06:19:05;;;;;;;15.77;14.17;;;4.70;99.90;;;;;;4956402;29;20211;-41
2020/12/21 06:21:34;;;;;;;15.00;13.50;;;4.60;99.90;;;;;;4956675;29;20283;-41
2020/12/21 06:24:01;;;;;;;15.40;13.80;;;4.50;99.90;;;;;;4954995;28;20302;-41
2020/12/21 06:26:33;;;;;;;20.93;18.60;;;4.40;99.90;;;;;;4956246;29;20214;-42
2020/12/21 06:29:02;;;;;;;37.93;30.30;;;4.40;99.90;;;;;;4956059;29;20314;-40
2020/12/21 06:31:42;;;;;;;34.83;25.73;;;4.40;99.90;;;;;;4955769;29;20537;-40
2020/12/21 06:34:12;;;;;;;26.73;20.67;;;4.30;99.90;;;;;;4956270;29;20215;-41
2020/12/21 06:36:39;;;;;;;21.95;16.63;;;4.30;99.90;;;;;;4956151;29;20305;-40
2020/12/21 06:39:07;;;;;;;18.53;16.50;;;4.40;99.90;;;;;;4955829;29;20211;-41
2020/12/21 06:41:34;;;;;;;26.87;21.27;;;4.40;99.90;;;;;;4955995;29;20246;-40
2020/12/21 06:44:06;;;;;;;17.57;15.63;;;4.40;99.90;;;;;;4955883;29;20409;-42
2020/12/21 06:46:35;;;;;;;17.90;15.37;;;4.50;99.90;;;;;;4955559;29;20282;-40
2020/12/21 06:49:12;;;;;;;22.53;18.30;;;4.60;99.90;;;;;;4955806;29;20597;-41
2020/12/21 06:51:44;;;;;;;18.40;15.80;;;4.60;99.90;;;;;;4955526;29;20502;-41
2020/12/21 06:54:12;;;;;;;21.37;17.80;;;4.70;99.90;;;;;;4955701;29;20630;-41
2020/12/21 06:56:40;;;;;;;17.87;14.97;;;4.80;99.90;;;;;;4955622;29;20256;-43
2020/12/21 06:59:14;;;;;;;18.97;15.20;;;4.80;99.90;;;;;;4955398;29;20651;-40
2020/12/21 07:01:43;;;;;;;16.53;14.83;;;4.80;99.90;;;;;;4955489;29;20654;-40
2020/12/21 07:04:13;;;;;;;16.97;15.23;;;4.90;99.90;;;;;;4947756;29;20254;-40
2020/12/21 07:06:41;;;;;;;21.93;17.63;;;4.90;99.90;;;;;;4955601;29;20374;-41
2020/12/21 07:09:09;;;;;;;18.13;16.23;;;4.90;99.90;;;;;;4955311;29;20298;-40
2020/12/21 07:11:38;;;;;;;21.90;18.87;;;4.90;99.90;;;;;;4955208;29;20212;-42
2020/12/21 07:14:06;;;;;;;25.07;22.23;;;5.00;99.90;;;;;;4954980;29;20270;-41
2020/12/21 07:16:33;;;;;;;25.80;21.47;;;5.10;99.90;;;;;;4955514;29;20263;-41
2020/12/21 07:19:01;;;;;;;19.70;17.63;;;5.20;99.90;;;;;;4955274;29;20622;-41
2020/12/21 07:21:31;;;;;;;19.23;17.23;;;5.30;99.90;;;;;;4955145;28;20318;-41
2020/12/21 07:23:58;;;;;;;17.90;16.00;;;5.30;99.90;;;;;;4955271;29;20219;-41
2020/12/21 07:26:26;;;;;;;18.70;16.30;;;5.30;99.90;;;;;;4954987;29;20296;-42
2020/12/21 07:28:53;;;;;;;23.73;17.47;;;5.40;99.90;;;;;;4954927;29;20647;-42
2020/12/21 07:31:21;;;;;;;20.47;18.30;;;5.50;99.90;;;;;;4954918;29;20298;-41
2020/12/21 07:33:51;;;;;;;21.00;18.73;;;5.60;99.90;;;;;;4954566;28;20291;-42
2020/12/21 07:36:19;;;;;;;20.67;18.57;;;5.60;99.90;;;;;;4954993;29;20311;-41
2020/12/21 07:38:46;;;;;;;23.93;21.63;;;5.60;99.90;;;;;;4954648;29;20218;-41
2020/12/21 07:41:15;;;;;;;18.00;16.27;;;5.60;99.90;;;;;;4954995;29;20666;-41
2020/12/21 07:43:45;;;;;;;17.70;15.37;;;5.60;99.90;;;;;;4954718;29;20625;-41
2020/12/21 07:46:24;;;;;;;18.33;15.70;;;5.70;99.90;;;;;;4954804;29;20711;-41
2020/12/21 07:48:52;;;;;;;17.07;15.23;;;5.80;99.90;;;;;;4954450;29;20235;-44
2020/12/21 07:51:21;;;;;;;17.90;14.03;;;5.90;99.90;;;;;;4954612;28;20294;-43
2020/12/21 07:53:49;;;;;;;18.67;16.67;;;6.00;99.90;;;;;;4954312;29;20318;-41
2020/12/21 07:56:17;;;;;;;18.40;16.47;;;6.00;99.90;;;;;;4954121;28;20298;-41
2020/12/21 07:58:45;;;;;;;20.17;18.17;;;6.10;99.90;;;;;;4953939;29;20302;-41
2020/12/21 08:01:12;;;;;;;15.33;13.80;;;6.20;99.90;;;;;;4953958;29;20622;-41
2020/12/21 08:03:40;;;;;;;18.23;15.37;;;6.20;99.90;;;;;;4953753;29;20242;-41
2020/12/21 08:06:13;;;;;;;18.77;15.50;;;6.30;99.90;;;;;;4954555;29;20214;-43
2020/12/21 08:08:40;;;;;;;16.77;15.07;;;6.30;99.90;;;;;;4954074;29;20228;-42
2020/12/21 08:11:15;;;;;;;17.93;16.03;;;6.30;99.90;;;;;;4954039;29;20298;-41
2020/12/21 08:13:48;;;;;;;17.43;15.73;;;6.20;99.90;;;;;;4953713;29;20306;-42
2020/12/21 08:16:16;;;;;;;18.03;16.10;;;6.20;99.90;;;;;;4954203;29;20621;-41
2020/12/21 08:18:45;;;;;;;18.00;16.10;;;6.20;99.90;;;;;;4953827;29;20258;-41
2020/12/21 08:21:15;;;;;;;19.73;16.50;;;6.20;99.90;;;;;;4953624;29;20212;-44
2020/12/21 08:23:52;;;;;;;17.65;15.93;;;6.20;99.90;;;;;;4953840;28;20303;-41
2020/12/21 08:26:20;;;;;;;14.73;13.27;;;6.30;99.90;;;;;;4953766;29;20219;-40
2020/12/21 08:28:49;;;;;;;14.57;13.17;;;6.30;99.90;;;;;;4953894;29;20235;-41
2020/12/21 08:31:20;;;;;;;14.50;13.07;;;6.40;99.90;;;;;;4953652;29;20609;-41
2020/12/21 08:33:59;;;;;;;17.50;15.90;;;6.50;99.90;;;;;;4954046;29;20322;-43
2020/12/21 08:36:29;;;;;;;15.67;14.10;;;6.50;99.90;;;;;;4953463;29;20246;-44
2020/12/21 08:39:13;;;;;;;16.33;14.33;;;6.50;99.90;;;;;;4953480;29;20513;-42
2020/12/21 08:41:43;;;;;;;16.50;14.18;;;6.50;99.90;;;;;;4951444;29;20226;-42
2020/12/21 08:44:17;;;;;;;15.83;14.27;;;6.50;99.90;;;;;;4953898;29;20633;-43
2020/12/21 08:46:50;;;;;;;15.83;13.73;;;6.60;99.90;;;;;;4952879;29;20219;-41
2020/12/21 08:49:18;;;;;;;15.13;13.73;;;6.60;99.90;;;;;;4953584;29;20330;-42
2020/12/21 08:51:45;;;;;;;14.60;13.13;;;6.70;99.90;;;;;;4953733;29;20321;-41
2020/12/21 08:54:12;;;;;;;13.23;12.03;;;6.70;99.90;;;;;;4953698;29;20212;-41
2020/12/21 08:56:45;;;;;;;13.63;12.23;;;6.80;99.90;;;;;;4953524;29;20215;-42
2020/12/21 08:59:12;;;;;;;15.10;13.50;;;6.80;99.90;;;;;;4953521;29;20204;-42
2020/12/21 09:01:40;;;;;;;16.00;12.07;;;6.80;99.90;;;;;;4953574;28;20292;-41
2020/12/21 09:04:07;;;;;;;13.77;12.37;;;6.80;99.90;;;;;;4953722;29;20738;-43
2020/12/21 09:06:34;;;;;;;13.70;12.33;;;6.80;99.90;;;;;;4953260;29;20302;-42
2020/12/21 09:09:01;;;;;;;13.63;12.27;;;6.90;99.90;;;;;;4953661;29;20330;-43
2020/12/21 09:11:29;;;;;;;13.93;12.63;;;6.90;99.90;;;;;;4953652;29;20742;-42
2020/12/21 09:13:57;;;;;;;14.30;12.90;;;7.00;99.90;;;;;;4953447;29;20248;-41
2020/12/21 09:16:26;;;;;;;24.75;18.45;;;7.00;99.90;;;;;;4953643;29;20594;-42
2020/12/21 09:18:54;;;;;;;16.58;13.70;;;7.10;99.90;;;;;;4953525;29;20302;-43
2020/12/21 09:21:23;;;;;;;15.73;14.00;;;7.10;99.90;;;;;;4953543;29;20294;-41
2020/12/21 09:23:52;;;;;;;20.53;18.23;;;7.10;99.90;;;;;;4953155;29;20247;-40
2020/12/21 09:26:19;;;;;;;13.33;12.03;;;7.10;99.90;;;;;;4953440;29;20247;-41
2020/12/21 09:28:47;;;;;;;18.83;15.17;;;7.20;99.90;;;;;;4953294;29;20667;-42
2020/12/21 09:31:16;;;;;;;18.93;15.47;;;7.20;99.90;;;;;;4953429;29;20224;-45
2020/12/21 09:33:46;;;;;;;21.20;14.43;;;7.30;99.90;;;;;;4953510;29;20699;-43
2020/12/21 09:36:13;;;;;;;14.17;12.87;;;7.40;99.90;;;;;;4953404;29;20218;-43
2020/12/21 09:38:41;;;;;;;15.03;13.47;;;7.40;99.90;;;;;;4953554;29;20302;-42
2020/12/21 09:41:08;;;;;;;15.83;14.27;;;7.50;99.90;;;;;;4953065;28;20687;-42
2020/12/21 09:43:35;;;;;;;15.83;14.23;;;7.60;99.90;;;;;;4952990;29;20226;-47
2020/12/21 09:46:02;;;;;;;16.92;15.32;;;7.60;99.90;;;;;;4953325;29;20211;-44
2020/12/21 09:48:32;;;;;;;19.37;17.40;;;7.70;99.90;;;;;;4953166;29;20227;-42
2020/12/21 09:50:59;;;;;;;19.40;17.40;;;7.70;99.90;;;;;;4952995;29;20559;-42
2020/12/21 09:53:26;;;;;;;18.23;16.52;;;7.70;99.90;;;;;;4953368;29;20746;-41
2020/12/21 09:55:52;;;;;;;19.90;17.97;;;7.80;99.90;;;;;;4953512;29;20301;-42
2020/12/21 09:58:19;;;;;;;20.27;18.23;;;7.80;99.90;;;;;;4955655;28;20298;-42
2020/12/21 10:00:46;;;;;;;17.30;15.50;;;7.90;99.90;;;;;;4956492;29;20215;-43
2020/12/21 10:03:13;;;;;;;14.27;12.85;;;7.90;99.90;;;;;;4956289;29;20725;-41
2020/12/21 10:05:41;;;;;;;12.63;11.40;;;8.00;99.90;;;;;;4956039;29;20306;-42
2020/12/21 10:08:08;;;;;;;13.13;11.83;;;7.90;99.90;;;;;;4956062;29;20232;-44
2020/12/21 10:10:35;;;;;;;14.02;12.65;;;7.80;99.90;;;;;;4956198;29;20215;-40
2020/12/21 10:13:03;;;;;;;14.70;13.30;;;7.80;99.90;;;;;;4955974;29;20259;-42
2020/12/21 10:15:30;;;;;;;14.38;13.00;;;7.80;99.90;;;;;;4956042;28;20686;-41
2020/12/21 10:17:57;;;;;;;14.63;13.15;;;7.90;99.90;;;;;;4955907;29;20262;-40
2020/12/21 10:20:24;;;;;;;14.98;13.57;;;7.80;99.90;;;;;;4955986;29;20207;-43
2020/12/21 10:22:52;;;;;;;13.38;12.05;;;7.80;99.90;;;;;;4955934;29;20274;-41
2020/12/21 10:25:19;;;;;;;14.73;13.20;;;7.90;99.90;;;;;;4956232;29;20323;-40
2020/12/21 10:27:46;;;;;;;16.53;15.03;;;8.00;99.90;;;;;;4956163;29;20215;-40
2020/12/21 10:30:15;;;;;;;14.38;13.05;;;8.10;99.90;;;;;;4956208;29;20239;-41
2020/12/21 10:32:43;;;;;;;15.00;13.48;;;8.20;99.90;;;;;;4956029;29;20648;-41
2020/12/21 10:35:10;;;;;;;14.50;13.10;;;8.30;99.90;;;;;;4956036;28;20361;-41
2020/12/21 10:37:38;;;;;;;23.10;20.65;;;8.30;99.90;;;;;;4955650;29;20279;-40
2020/12/21 10:40:06;;;;;;;14.77;13.37;;;8.30;99.90;;;;;;4946463;29;20582;-40
2020/12/21 10:42:33;;;;;;;14.02;12.82;;;8.40;99.90;;;;;;4936702;29;20255;-40
2020/12/21 10:45:00;;;;;;;12.63;11.37;;;8.40;99.90;;;;;;4936708;29;20212;-41
2020/12/21 10:47:29;;;;;;;13.77;12.48;;;8.40;99.90;;;;;;4936611;29;20243;-41
2020/12/21 10:49:56;;;;;;;13.15;11.98;;;8.50;99.90;;;;;;4936446;29;20325;-42
2020/12/21 10:52:26;;;;;;;17.17;15.57;;;8.50;99.90;;;;;;4936564;29;20263;-42
2020/12/21 10:54:52;;;;;;;18.35;15.77;;;8.50;99.90;;;;;;4936600;29;20219;-42
2020/12/21 10:57:20;;;;;;;15.67;13.87;;;8.50;99.90;;;;;;4936394;29;20208;-43
2020/12/21 10:59:47;;;;;;;14.50;13.03;;;8.50;99.90;;;;;;4936409;29;20287;-41
2020/12/21 11:02:14;;;;;;;14.97;13.47;;;8.50;99.90;;;;;;4935959;29;20302;-41
2020/12/21 11:04:42;;;;;;;15.65;14.05;;;8.50;99.90;;;;;;4936335;29;20302;-42
2020/12/21 11:07:09;;;;;;;13.20;12.02;;;8.50;99.90;;;;;;4936279;29;20621;-43
2020/12/21 11:09:36;;;;;;;13.82;12.45;;;8.50;99.90;;;;;;4935244;29;20581;-41
2020/12/21 11:12:03;;;;;;;14.90;13.50;;;8.50;99.90;;;;;;4935766;29;20208;-41
2020/12/21 11:14:30;;;;;;;13.80;12.50;;;8.50;99.90;;;;;;4935863;29;20330;-42
2020/12/21 11:16:58;;;;;;;14.63;13.07;;;8.50;99.90;;;;;;4935786;29;20303;-41
2020/12/21 11:19:25;;;;;;;14.48;12.98;;;8.50;99.90;;;;;;4935744;29;20212;-42
2020/12/21 11:21:52;;;;;;;16.40;14.80;;;8.50;99.90;;;;;;4935715;29;20236;-42
2020/12/21 11:24:19;;;;;;;14.43;13.10;;;8.40;99.90;;;;;;4935499;29;20294;-41
2020/12/21 11:26:50;;;;;;;17.70;14.65;;;8.40;99.90;;;;;;4935580;29;20251;-43
2020/12/21 11:29:17;;;;;;;15.33;13.70;;;8.30;99.90;;;;;;4935343;29;20339;-42
2020/12/21 11:31:45;;;;;;;14.05;12.75;;;8.30;99.90;;;;;;4935258;29;20247;-43
2020/12/21 11:34:12;;;;;;;15.30;13.85;;;8.20;99.90;;;;;;4935360;29;20620;-43
2020/12/21 11:36:42;;;;;;;14.00;12.70;;;8.20;99.90;;;;;;4935446;29;20219;-46
2020/12/21 11:39:09;;;;;;;15.43;13.83;;;8.20;99.90;;;;;;4935384;29;20291;-44
2020/12/21 11:41:36;;;;;;;15.20;13.70;;;8.20;99.90;;;;;;4935455;29;20216;-44
2020/12/21 11:44:03;;;;;;;14.70;13.30;;;8.20;99.90;;;;;;4935143;29;20582;-42
2020/12/21 11:46:30;;;;;;;15.63;14.03;;;8.20;99.90;;;;;;4935549;29;20212;-43
2020/12/21 11:48:59;;;;;;;14.40;13.20;;;8.20;99.90;;;;;;4935183;29;20369;-42
2020/12/21 11:51:26;;;;;;;15.67;13.97;;;8.20;99.90;;;;;;4935176;29;20310;-44
2020/12/21 11:53:53;;;;;;;17.00;15.30;;;8.30;99.90;;;;;;4935342;29;20218;-43
2020/12/21 11:56:21;;;;;;;16.20;14.60;;;8.30;99.90;;;;;;4935042;29;20240;-42
2020/12/21 11:58:48;;;;;;;15.37;13.87;;;8.30;99.90;;;;;;4934916;29;20213;-45
2020/12/21 12:01:16;;;;;;;15.30;12.87;;;8.30;99.90;;;;;;4935148;29;20234;-41
2020/12/21 12:03:43;;;;;;;16.53;15.00;;;8.40;99.90;;;;;;4935050;29;20315;-43
2020/12/21 12:06:11;;;;;;;18.08;15.80;;;8.40;99.90;;;;;;4927093;29;20248;-43
2020/12/21 12:08:39;;;;;;;13.43;12.13;;;8.40;99.90;;;;;;4934848;29;20228;-42
2020/12/21 12:11:07;;;;;;;14.17;12.77;;;8.40;99.90;;;;;;4934804;29;20303;-42
2020/12/21 12:13:34;;;;;;;13.07;11.77;;;8.40;99.90;;;;;;4934853;29;20255;-48
2020/12/21 12:16:01;;;;;;;15.45;13.18;;;8.50;99.90;;;;;;4935099;29;20299;-44
2020/12/21 12:18:29;;;;;;;16.27;14.57;;;8.50;99.90;;;;;;4935110;29;20212;-44
2020/12/21 12:20:56;;;;;;;17.98;16.08;;;8.50;99.90;;;;;;4933930;29;20697;-43
2020/12/21 12:23:24;;;;;;;15.13;13.60;;;8.60;99.90;;;;;;4934895;29;20291;-42
2020/12/21 12:25:51;;;;;;;14.57;13.27;;;8.60;99.90;;;;;;4934870;29;20208;-42
2020/12/21 12:28:18;;;;;;;15.00;13.40;;;8.60;99.90;;;;;;4934746;29;20263;-42
2020/12/21 12:30:45;;;;;;;14.57;13.20;;;8.50;99.90;;;;;;4934856;29;20239;-45
2020/12/21 12:33:12;;;;;;;14.47;13.10;;;8.50;99.90;;;;;;4934823;29;20216;-43
2020/12/21 12:35:39;;;;;;;15.52;14.05;;;8.50;99.90;;;;;;4934758;29;20222;-46
2020/12/21 12:38:06;;;;;;;15.55;14.07;;;8.50;99.90;;;;;;4934839;29;20215;-45
2020/12/21 12:40:34;;;;;;;15.90;14.40;;;8.50;99.90;;;;;;4934682;29;20707;-42